Time;durP1;ratioP1;P1;durP2;ratioP2;P2;SDS_P1;SDS_P2;PMS_P1;PMS_P2;Temp;Humidity;BMP_temperature;BMP_pressure;BME280_temperature;BME280_humidity;BME280_pressure;Samples;Min_cycle;Max_cycle;Signal;HPM_P1;HPM_P2
2023/08/02 00:02:24;;;;;;;5.10;2.30;;;;;;;15.48;100.00;97900.41;273268;1254;22410;-83
2023/08/02 00:08:46;;;;;;;4.80;2.30;;;;;;;15.45;100.00;97910.68;271495;1269;22412;-82
2023/08/02 00:16:09;;;;;;;3.20;1.90;;;;;;;15.50;100.00;97906.14;273319;1269;22666;-81
2023/08/02 00:22:52;;;;;;;2.80;1.90;;;;;;;15.53;100.00;97910.78;273445;1267;22455;-84
2023/08/02 00:29:14;;;;;;;3.60;1.80;;;;;;;15.57;100.00;97916.05;272267;1267;22502;-83
2023/08/02 00:35:16;;;;;;;6.60;2.30;;;;;;;15.59;100.00;97918.74;272376;1260;22388;-84
2023/08/02 00:41:18;;;;;;;4.00;2.40;;;;;;;15.56;100.00;97921.02;272862;1267;22224;-83
2023/08/02 00:47:41;;;;;;;6.90;2.40;;;;;;;15.55;100.00;97923.98;273543;1267;22409;-83
2023/08/02 00:53:43;;;;;;;6.10;2.50;;;;;;;15.58;100.00;97927.98;271303;1267;23611;-82
2023/08/02 00:59:46;;;;;;;4.30;2.60;;;;;;;15.58;100.00;97928.93;273633;1267;22429;-83
2023/08/02 01:05:56;;;;;;;8.00;2.20;;;;;;;15.59;100.00;97937.81;273621;1267;22376;-83
2023/08/02 01:12:18;;;;;;;6.80;2.30;;;;;;;15.62;100.00;97947.11;273389;1267;22479;-83
2023/08/02 01:18:20;;;;;;;5.10;2.20;;;;;;;15.64;100.00;97955.96;272503;1267;23873;-83
2023/08/02 01:24:38;;;;;;;4.60;2.20;;;;;;;15.63;100.00;97959.70;271599;1267;22455;-83
2023/08/02 01:30:39;;;;;;;3.40;2.30;;;;;;;15.66;100.00;97954.89;272726;1266;23882;-83
2023/08/02 01:36:41;;;;;;;5.00;2.30;;;;;;;15.70;100.00;97950.32;270787;1257;24992;-83
2023/08/02 01:42:59;;;;;;;6.90;2.40;;;;;;;15.68;100.00;97947.84;271618;1260;22541;-83
2023/08/02 01:49:19;;;;;;;5.90;2.30;;;;;;;15.66;100.00;97952.28;272612;1267;22511;-82
2023/08/02 01:55:42;;;;;;;6.00;2.30;;;;;;;15.65;100.00;97951.42;273550;1267;22431;-82
2023/08/02 02:01:45;;;;;;;3.40;2.10;;;;;;;15.64;100.00;97953.28;272417;1267;22584;-82
2023/08/02 02:08:07;;;;;;;4.00;2.20;;;;;;;15.64;100.00;97963.38;272569;1267;22378;-83
2023/08/02 02:14:09;;;;;;;4.90;2.10;;;;;;;15.59;100.00;97966.02;273482;1267;22363;-83
2023/08/02 02:20:12;;;;;;;5.10;2.30;;;;;;;15.53;100.00;97966.11;273410;1267;22207;-83
2023/08/02 02:26:53;;;;;;;4.70;2.00;;;;;;;15.48;100.00;97976.54;273599;1267;22200;-82
2023/08/02 02:33:13;;;;;;;5.70;2.30;;;;;;;15.44;100.00;97987.69;273257;1256;24534;-82
2023/08/02 02:39:14;;;;;;;10.40;2.10;;;;;;;15.39;100.00;97995.98;273444;1267;24846;-83
2023/08/02 02:45:16;;;;;;;3.60;1.90;;;;;;;15.32;100.00;97994.40;273579;1267;22252;-82
2023/08/02 02:51:18;;;;;;;4.90;2.30;;;;;;;15.31;100.00;98005.61;273038;1267;23790;-82
2023/08/02 02:57:41;;;;;;;4.50;2.50;;;;;;;15.32;100.00;98010.70;273293;1266;22841;-81
2023/08/02 03:04:24;;;;;;;7.30;2.60;;;;;;;15.38;100.00;98008.69;272867;1267;22543;-82
2023/08/02 03:10:25;;;;;;;3.80;2.60;;;;;;;15.39;100.00;98019.00;271618;1267;23580;-82
2023/08/02 03:16:27;;;;;;;4.60;2.40;;;;;;;15.38;100.00;98025.95;272109;1267;22259;-83
2023/08/02 03:22:32;;;;;;;2.90;1.90;;;;;;;15.40;100.00;98031.65;273462;1263;23448;-83
2023/08/02 03:28:54;;;;;;;3.50;2.40;;;;;;;15.44;100.00;98035.98;273501;1269;22368;-82
2023/08/02 03:35:36;;;;;;;6.00;2.80;;;;;;;15.48;100.00;98038.87;273629;1261;22366;-82
2023/08/02 03:41:58;;;;;;;5.60;3.00;;;;;;;15.50;100.00;98037.97;273685;1267;22373;-82
2023/08/02 03:48:00;;;;;;;5.30;2.70;;;;;;;15.54;100.00;98036.93;273545;1268;22167;-83
2023/08/02 03:54:03;;;;;;;4.10;2.20;;;;;;;15.57;100.00;98032.43;273464;1269;23428;-83
2023/08/02 04:00:05;;;;;;;5.60;2.80;;;;;;;15.61;100.00;98034.61;272939;1269;23283;-83
2023/08/02 04:06:28;;;;;;;4.80;3.60;;;;;;;15.65;100.00;98035.95;272074;1261;22539;-82
2023/08/02 04:12:33;;;;;;;3.90;3.10;;;;;;;15.68;100.00;98034.38;271957;1272;22527;-83
2023/08/02 04:18:55;;;;;;;8.80;3.80;;;;;;;15.68;100.00;98040.36;270721;1262;22603;-83
2023/08/02 04:24:58;;;;;;;8.50;3.90;;;;;;;15.68;100.00;98043.85;272527;1269;22618;-82
2023/08/02 04:31:00;;;;;;;6.30;3.90;;;;;;;15.71;100.00;98044.63;272034;1271;22394;-83
2023/08/02 04:37:02;;;;;;;10.50;4.20;;;;;;;15.78;100.00;98047.06;273088;1269;22541;-82
2023/08/02 04:43:04;;;;;;;12.30;4.80;;;;;;;15.87;100.00;98057.49;272619;1256;22529;-82
2023/08/02 04:49:46;;;;;;;7.20;4.50;;;;;;;16.00;100.00;98056.68;271775;1267;22377;-82
2023/08/02 04:56:29;;;;;;;8.10;4.40;;;;;;;16.13;100.00;98058.55;272604;1267;22282;-81
2023/08/02 05:02:36;;;;;;;8.90;4.20;;;;;;;16.19;100.00;98061.25;272267;1259;22307;-81
2023/08/02 05:09:14;;;;;;;7.60;4.30;;;;;;;16.28;100.00;98065.02;271741;1267;23487;-82
2023/08/02 05:15:16;;;;;;;6.70;3.20;;;;;;;16.39;100.00;98068.43;271688;1268;23037;-82
2023/08/02 05:21:19;;;;;;;5.60;3.70;;;;;;;16.47;100.00;98078.73;272752;1267;22508;-82
2023/08/02 05:27:20;;;;;;;6.50;4.10;;;;;;;16.60;100.00;98083.76;273069;1266;24200;-81
2023/08/02 05:33:22;;;;;;;4.40;3.60;;;;;;;16.75;100.00;98078.61;271956;1267;22209;-82
2023/08/02 05:39:24;;;;;;;4.70;3.50;;;;;;;16.81;100.00;98080.34;273156;1267;22251;-81
2023/08/02 05:45:26;;;;;;;14.00;5.30;;;;;;;16.76;100.00;98078.25;273461;1267;22456;-84
2023/08/02 05:51:52;;;;;;;7.70;4.70;;;;;;;16.78;100.00;98085.21;272139;1267;22376;-81
2023/08/02 05:57:54;;;;;;;8.40;5.90;;;;;;;16.81;100.00;98082.67;272955;1267;22515;-80
2023/08/02 06:03:55;;;;;;;11.20;4.70;;;;;;;16.88;100.00;98086.05;272869;1256;22588;-80
2023/08/02 06:09:57;;;;;;;8.40;4.40;;;;;;;16.93;100.00;98084.40;271835;1267;22195;-83
2023/08/02 06:15:59;;;;;;;7.60;4.40;;;;;;;17.06;100.00;98087.05;272174;1265;24074;-81
2023/08/02 06:22:10;;;;;;;6.50;3.80;;;;;;;17.17;100.00;98095.38;272194;1267;24751;-82
2023/08/02 06:28:32;;;;;;;7.00;4.30;;;;;;;17.34;100.00;98094.95;271430;1267;22524;-81
2023/08/02 06:34:35;;;;;;;6.20;3.40;;;;;;;17.45;100.00;98096.02;272037;1267;22548;-80
2023/08/02 06:40:41;;;;;;;3.40;3.10;;;;;;;17.50;100.00;98101.86;272525;1260;22557;-82
2023/08/02 06:46:43;;;;;;;6.70;2.60;;;;;;;17.57;100.00;98100.39;273440;1256;23626;-81
2023/08/02 06:52:45;;;;;;;3.50;2.40;;;;;;;17.71;100.00;98102.80;273066;1267;22428;-81
2023/08/02 06:58:54;;;;;;;4.40;2.40;;;;;;;17.99;100.00;98103.05;271747;1257;22507;-81
2023/08/02 07:04:55;;;;;;;3.00;2.30;;;;;;;18.30;100.00;98107.67;273276;1263;22537;-81
2023/08/02 07:10:57;;;;;;;6.40;2.20;;;;;;;18.52;100.00;98109.13;272580;1269;22448;-82
2023/08/02 07:16:58;;;;;;;4.50;2.50;;;;;;;18.72;100.00;98109.52;272864;1267;22446;-82
2023/08/02 07:23:00;;;;;;;4.40;2.10;;;;;;;18.91;100.00;98113.21;271970;1258;22631;-83
2023/08/02 07:29:02;;;;;;;3.50;2.40;;;;;;;19.13;100.00;98113.98;273056;1268;22670;-82
2023/08/02 07:35:05;;;;;;;3.60;2.30;;;;;;;19.36;100.00;98118.71;273218;1257;22576;-84
2023/08/02 07:41:08;;;;;;;3.40;2.10;;;;;;;19.46;100.00;98128.48;272716;1256;25233;-82
2023/08/02 07:47:14;;;;;;;3.50;2.10;;;;;;;19.50;100.00;98126.33;272612;1268;22334;-82
2023/08/02 07:53:15;;;;;;;6.60;2.20;;;;;;;19.69;100.00;98128.85;273496;1268;22948;-82
2023/08/02 07:59:19;;;;;;;3.10;2.20;;;;;;;20.05;100.00;98126.93;273178;1268;22309;-83
2023/08/02 08:05:25;;;;;;;4.10;2.00;;;;;;;20.23;100.00;98118.50;273511;1269;124786;-82
2023/08/02 08:12:08;;;;;;;3.60;2.00;;;;;;;20.46;100.00;98114.51;273410;1269;23364;-82
2023/08/02 08:18:12;;;;;;;3.20;1.60;;;;;;;20.57;100.00;98128.91;273594;1267;22335;-82
2023/08/02 08:24:13;;;;;;;2.60;1.70;;;;;;;20.83;100.00;98126.49;273568;1267;22757;-84
2023/08/02 08:30:15;;;;;;;2.20;1.60;;;;;;;21.12;100.00;98115.14;273641;1267;22309;-83
2023/08/02 08:36:38;;;;;;;4.40;1.90;;;;;;;21.27;100.00;98105.86;273424;1256;23535;-82
2023/08/02 08:42:51;;;;;;;6.10;2.00;;;;;;;21.37;100.00;98106.10;272836;1267;22215;-82
2023/08/02 08:48:52;;;;;;;2.10;1.60;;;;;;;21.42;100.00;98110.27;273590;1256;22394;-81
2023/08/02 08:54:54;;;;;;;2.50;1.60;;;;;;;21.50;99.64;98105.45;273596;1262;22200;-81
2023/08/02 09:00:58;;;;;;;2.50;2.10;;;;;;;21.45;98.77;98108.13;272900;1259;22388;-82
2023/08/02 09:07:00;;;;;;;2.50;1.70;;;;;;;21.71;98.29;98105.79;273369;1268;23766;-83
2023/08/02 09:13:02;;;;;;;3.00;1.60;;;;;;;22.03;97.13;98105.60;273604;1267;23628;-84
2023/08/02 09:19:31;;;;;;;3.00;1.90;;;;;;;22.26;94.91;98105.60;273524;1268;22454;-82
2023/08/02 09:25:57;;;;;;;2.30;1.60;;;;;;;22.14;93.92;98110.25;271259;1269;22676;-82
2023/08/02 09:32:40;;;;;;;4.40;1.50;;;;;;;22.37;92.21;98106.91;273274;1269;22406;-81
2023/08/02 09:39:03;;;;;;;2.30;1.50;;;;;;;22.86;92.06;98104.09;273402;1267;22490;-83
2023/08/02 09:45:08;;;;;;;1.80;1.50;;;;;;;23.49;89.01;98100.23;273629;1269;22243;-83
2023/08/02 09:52:09;;;;;;;3.30;1.50;;;;;;;24.41;88.43;98093.14;273587;1269;22305;-81
2023/08/02 09:58:23;;;;;;;2.20;1.40;;;;;;;25.49;85.97;98090.36;273716;1259;22217;-82
2023/08/02 10:04:27;;;;;;;2.70;1.50;;;;;;;26.39;82.77;98084.61;273446;1260;22343;-82
2023/08/02 10:10:30;;;;;;;2.40;1.50;;;;;;;26.90;80.66;98075.15;273187;1269;25414;-82
2023/08/02 10:17:13;;;;;;;2.70;1.20;;;;;;;27.07;77.92;98071.88;272512;1270;22218;-83
2023/08/02 10:23:44;;;;;;;1.80;1.40;;;;;;;26.72;78.13;98066.36;273102;1259;87247;-85
2023/08/02 10:29:47;;;;;;;1.60;1.20;;;;;;;26.99;76.40;98061.80;270503;1266;22557;-87
2023/08/02 10:36:10;;;;;;;3.90;1.40;;;;;;;27.42;74.41;98063.52;270533;1266;22528;-87
2023/08/02 10:42:13;;;;;;;1.20;1.10;;;;;;;27.37;72.25;98050.17;270219;1267;23229;-86
2023/08/02 10:48:25;;;;;;;1.80;1.20;;;;;;;27.15;70.61;98039.87;270032;1267;22540;-87
2023/08/02 10:54:31;;;;;;;1.30;1.20;;;;;;;26.98;68.89;98029.17;269795;1266;22637;-89
2023/08/02 11:00:35;;;;;;;3.00;1.40;;;;;;;26.87;68.63;98023.27;270364;1266;22549;-87
2023/08/02 11:06:37;;;;;;;1.80;1.20;;;;;;;26.74;68.58;98022.78;270918;1266;22508;-87
2023/08/02 11:12:51;;;;;;;2.00;1.30;;;;;;;27.13;67.49;98022.65;271073;1267;22507;-88
2023/08/02 11:18:55;;;;;;;2.90;1.20;;;;;;;27.10;65.50;98018.11;270323;1267;22525;-86
2023/08/02 11:24:57;;;;;;;3.20;1.20;;;;;;;26.75;65.34;98017.67;270435;1266;22615;-86
2023/08/02 11:31:01;;;;;;;5.30;1.60;;;;;;;26.19;64.69;98020.95;270341;1266;22544;-87
2023/08/02 11:37:08;;;;;;;2.10;1.40;;;;;;;25.63;64.51;98016.32;270096;1267;24159;-87
2023/08/02 11:43:14;;;;;;;3.50;1.20;;;;;;;25.51;65.42;98005.79;270141;1267;23381;-86
2023/08/02 11:49:20;;;;;;;2.50;1.20;;;;;;;25.84;64.60;98001.02;270401;1260;22583;-87
2023/08/02 11:55:23;;;;;;;1.30;1.20;;;;;;;26.01;63.58;98000.97;270126;1267;24082;-86
2023/08/02 12:01:30;;;;;;;1.90;1.10;;;;;;;26.11;63.16;97994.16;270469;1266;22545;-87
2023/08/02 12:07:34;;;;;;;6.40;1.40;;;;;;;26.15;62.99;97985.65;270672;1266;23725;-88
2023/08/02 12:13:42;;;;;;;2.70;1.10;;;;;;;26.07;62.41;97974.55;271171;1266;23258;-89
2023/08/02 12:19:49;;;;;;;1.50;1.10;;;;;;;25.89;61.79;97964.03;271163;1266;22599;-88
2023/08/02 12:26:08;;;;;;;2.70;1.00;;;;;;;25.80;62.67;97964.23;264090;1305;545203;-85
2023/08/02 12:32:23;;;;;;;2.50;1.20;;;;;;;25.56;61.56;97960.60;270656;1272;22629;-84
2023/08/02 12:38:29;;;;;;;2.40;1.10;;;;;;;25.33;60.96;97953.33;270769;1272;129382;-85
2023/08/02 12:44:32;;;;;;;1.80;1.00;;;;;;;25.01;61.43;97949.05;270943;1278;22527;-84
2023/08/02 12:50:34;;;;;;;1.90;1.10;;;;;;;24.92;62.44;97944.53;270811;1278;23173;-83
2023/08/02 12:56:36;;;;;;;1.30;0.70;;;;;;;25.03;62.14;97947.12;270742;1269;22417;-85
2023/08/02 13:02:38;;;;;;;1.50;1.10;;;;;;;25.06;61.26;97940.48;271075;1270;23611;-85
2023/08/02 13:08:39;;;;;;;2.40;1.20;;;;;;;25.00;61.86;97936.41;271082;1276;23073;-84
2023/08/02 13:14:44;;;;;;;1.10;0.90;;;;;;;24.89;61.67;97931.73;271141;1278;22416;-84
2023/08/02 13:20:45;;;;;;;1.20;0.90;;;;;;;24.76;61.11;97928.71;271241;1278;22402;-82
2023/08/02 13:26:47;;;;;;;1.40;0.90;;;;;;;24.89;58.23;97924.85;271170;1272;22476;-83
2023/08/02 13:32:51;;;;;;;1.10;0.60;;;;;;;25.01;56.45;97922.56;271201;1263;22348;-83
2023/08/02 13:38:53;;;;;;;1.50;0.80;;;;;;;24.90;56.34;97924.67;271213;1279;22950;-83
2023/08/02 13:44:55;;;;;;;1.80;0.70;;;;;;;24.86;56.45;97918.33;271277;1279;23037;-84
2023/08/02 13:50:56;;;;;;;1.30;0.70;;;;;;;24.72;55.41;97915.56;271113;1269;22401;-82
2023/08/02 13:56:58;;;;;;;1.50;0.80;;;;;;;24.71;55.34;97909.14;271167;1266;22779;-83
2023/08/02 14:03:00;;;;;;;2.60;0.80;;;;;;;24.62;55.47;97915.29;271199;1269;22454;-84
2023/08/02 14:09:03;;;;;;;1.70;0.90;;;;;;;24.47;55.31;97915.73;271017;1269;23168;-84
2023/08/02 14:15:30;;;;;;;1.30;0.80;;;;;;;24.43;54.43;97912.41;271123;1269;22399;-83
2023/08/02 14:21:46;;;;;;;1.60;1.10;;;;;;;24.45;54.35;97902.56;271311;1278;22352;-84
2023/08/02 14:27:49;;;;;;;2.20;1.00;;;;;;;24.34;54.21;97900.55;271103;1272;22399;-83
2023/08/02 14:33:50;;;;;;;1.80;1.00;;;;;;;24.24;54.63;97902.13;271058;1278;22415;-85
2023/08/02 14:39:53;;;;;;;2.60;1.00;;;;;;;24.18;54.74;97900.80;271261;1266;22417;-83
2023/08/02 14:45:56;;;;;;;3.10;1.20;;;;;;;24.16;54.50;97894.16;271221;1278;22488;-83
2023/08/02 14:51:58;;;;;;;2.00;1.00;;;;;;;24.04;54.23;97894.54;271181;1279;22454;-83
2023/08/02 14:57:59;;;;;;;1.60;0.90;;;;;;;24.00;54.04;97892.61;271204;1278;22410;-82
2023/08/02 15:04:01;;;;;;;1.50;0.90;;;;;;;24.08;53.61;97889.09;271111;1269;22524;-83
2023/08/02 15:10:03;;;;;;;5.20;1.10;;;;;;;24.08;53.59;97883.20;271200;1276;23210;-84
2023/08/02 15:16:05;;;;;;;3.20;0.90;;;;;;;24.03;53.94;97880.39;271032;1279;22370;-85
2023/08/02 15:22:07;;;;;;;2.10;1.10;;;;;;;23.89;53.51;97877.56;271099;1270;23054;-83
2023/08/02 15:28:09;;;;;;;1.90;0.80;;;;;;;23.86;53.58;97872.88;271126;1278;22724;-83
2023/08/02 15:34:10;;;;;;;2.30;1.20;;;;;;;23.82;53.63;97869.24;271165;1278;23229;-84
2023/08/02 15:40:55;;;;;;;;;;;;;;;;;;;;;
2023/08/02 15:47:33;;;;;;;2.50;1.00;;;;;;;23.66;53.57;97867.15;271127;1276;22467;-84
2023/08/02 15:53:35;;;;;;;1.40;1.10;;;;;;;23.64;53.87;97861.74;272078;1279;22265;-83
2023/08/02 15:59:37;;;;;;;3.10;1.10;;;;;;;23.53;54.14;97855.36;271421;1279;22196;-85
2023/08/02 16:05:39;;;;;;;2.60;0.90;;;;;;;23.39;54.47;97840.71;271201;1266;22610;-86
2023/08/02 16:11:40;;;;;;;2.20;0.60;;;;;;;23.33;54.27;97834.74;271963;1269;23752;-84
2023/08/02 16:17:42;;;;;;;4.20;1.30;;;;;;;23.33;54.28;97832.30;272034;1278;23227;-85
2023/08/02 16:23:44;;;;;;;1.60;0.90;;;;;;;23.27;54.93;97826.07;272094;1278;22348;-85
2023/08/02 16:29:45;;;;;;;2.00;1.00;;;;;;;23.20;55.18;97822.41;271884;1276;22496;-84
2023/08/02 16:35:47;;;;;;;2.10;1.00;;;;;;;23.16;55.75;97815.86;271842;1269;23150;-84
2023/08/02 16:41:49;;;;;;;3.30;1.30;;;;;;;23.14;56.05;97814.87;271524;1276;22340;-84
2023/08/02 16:47:51;;;;;;;2.60;1.50;;;;;;;23.14;56.07;97817.81;269462;1267;22383;-84
2023/08/02 16:53:57;;;;;;;1.30;1.10;;;;;;;23.02;56.37;97822.56;271856;1276;22398;-85
2023/08/02 17:00:00;;;;;;;3.50;1.50;;;;;;;22.92;56.67;97828.80;271842;1270;22688;-84
2023/08/02 17:06:09;;;;;;;2.20;1.40;;;;;;;22.91;56.42;97837.46;272316;1279;22209;-84
2023/08/02 17:12:11;;;;;;;1.90;1.40;;;;;;;22.90;56.68;97825.09;271690;1279;23228;-84
2023/08/02 17:18:12;;;;;;;3.90;1.80;;;;;;;22.85;56.68;97819.30;271659;1277;22544;-85
2023/08/02 17:24:14;;;;;;;4.60;2.00;;;;;;;22.71;56.61;97822.25;269404;1279;22591;-84
2023/08/02 17:30:17;;;;;;;3.10;1.30;;;;;;;22.52;56.91;97828.52;271380;1279;23031;-84
2023/08/02 17:36:19;;;;;;;3.30;1.50;;;;;;;22.30;56.97;97817.68;272991;1260;22379;-85
2023/08/02 17:42:21;;;;;;;3.10;1.50;;;;;;;22.10;57.70;97813.84;272998;1260;22255;-83
2023/08/02 17:48:23;;;;;;;2.90;1.30;;;;;;;21.96;58.30;97806.48;272950;1270;23173;-83
2023/08/02 17:54:24;;;;;;;8.40;2.40;;;;;;;21.78;58.62;97796.67;273368;1270;22643;-83
2023/08/02 18:00:28;;;;;;;8.80;4.50;;;;;;;21.60;59.21;97798.29;272666;1270;22510;-84
2023/08/02 18:06:31;;;;;;;15.60;5.60;;;;;;;21.50;60.20;97789.17;273181;1260;22289;-85
2023/08/02 18:12:33;;;;;;;11.60;7.40;;;;;;;21.33;61.48;97784.33;272971;1270;22208;-83
2023/08/02 18:18:39;;;;;;;8.80;4.90;;;;;;;21.25;60.83;97779.23;272916;1270;22451;-84
2023/08/02 18:24:40;;;;;;;14.80;8.60;;;;;;;21.23;60.63;97783.45;272685;1257;22273;-83
2023/08/02 18:30:43;;;;;;;46.40;32.70;;;;;;;21.25;60.67;97780.47;272505;1266;25459;-83
2023/08/02 18:36:45;;;;;;;13.80;8.90;;;;;;;21.24;60.71;97772.83;272415;1260;22164;-84
2023/08/02 18:42:48;;;;;;;6.40;3.60;;;;;;;21.14;61.01;97771.11;272021;1270;22374;-83
2023/08/02 18:48:52;;;;;;;6.30;3.40;;;;;;;21.05;61.35;97773.21;272929;1270;22799;-84
2023/08/02 18:54:54;;;;;;;4.30;2.20;;;;;;;21.03;61.36;97776.70;272970;1270;22366;-83
2023/08/02 19:00:56;;;;;;;4.40;2.60;;;;;;;21.03;61.40;97774.27;272885;1270;22288;-83
2023/08/02 19:06:58;;;;;;;3.80;2.30;;;;;;;21.05;61.59;97777.13;272640;1270;22182;-83
2023/08/02 19:12:59;;;;;;;9.80;5.10;;;;;;;21.04;61.89;97775.56;272123;1260;22420;-84
2023/08/02 19:19:03;;;;;;;5.80;2.90;;;;;;;21.00;62.44;97774.25;272250;1270;23593;-84
2023/08/02 19:25:06;;;;;;;8.10;5.70;;;;;;;20.83;63.10;97773.13;271207;1270;22570;-84
2023/08/02 19:31:08;;;;;;;4.90;3.10;;;;;;;20.63;64.39;97775.97;271535;1270;23367;-84
2023/08/02 19:37:19;;;;;;;3.10;2.20;;;;;;;20.46;64.79;97768.25;271014;1264;22576;-83
2023/08/02 19:43:27;;;;;;;3.80;2.20;;;;;;;20.53;64.02;97760.67;271881;1264;22460;-83
2023/08/02 19:49:29;;;;;;;2.80;2.20;;;;;;;20.63;63.63;97764.35;272621;1258;22352;-84
2023/08/02 19:55:31;;;;;;;2.90;1.80;;;;;;;20.69;63.40;97766.20;271751;1270;26433;-83
2023/08/02 20:01:33;;;;;;;3.10;1.70;;;;;;;20.75;63.14;97759.66;272824;1257;22413;-83
2023/08/02 20:07:34;;;;;;;3.70;1.60;;;;;;;20.76;62.98;97761.77;272810;1263;22432;-82
2023/08/02 20:13:40;;;;;;;3.90;2.10;;;;;;;20.72;62.95;97763.14;273377;1257;23114;-83
2023/08/02 20:20:04;;;;;;;4.50;3.00;;;;;;;20.63;63.62;97766.16;272136;1260;22304;-83
2023/08/02 20:26:07;;;;;;;17.40;13.30;;;;;;;20.51;63.90;97763.30;271960;1270;22425;-83
2023/08/02 20:32:33;;;;;;;3.10;2.30;;;;;;;20.46;63.75;97765.31;272207;1270;22454;-83
2023/08/02 20:38:36;;;;;;;2.70;1.80;;;;;;;20.42;63.83;97764.24;270900;1262;23560;-82
2023/08/02 20:45:01;;;;;;;2.80;1.20;;;;;;;20.41;63.98;97767.52;272952;1270;22416;-82
2023/08/02 20:51:17;;;;;;;2.30;1.30;;;;;;;20.43;64.26;97755.08;271414;1270;23724;-82
2023/08/02 20:57:20;;;;;;;1.70;1.30;;;;;;;20.43;64.23;97754.48;271171;1270;22415;-83
2023/08/02 21:03:24;;;;;;;2.00;1.30;;;;;;;20.43;64.48;97749.23;272922;1269;22382;-83
2023/08/02 21:09:25;;;;;;;3.00;1.40;;;;;;;20.42;64.46;97751.86;272305;1270;22459;-83
2023/08/02 21:15:27;;;;;;;4.00;1.20;;;;;;;20.37;64.81;97739.72;272343;1261;22327;-85
2023/08/02 21:21:29;;;;;;;4.70;1.40;;;;;;;20.29;65.20;97730.54;272907;1270;22573;-84
2023/08/02 21:27:30;;;;;;;3.50;1.80;;;;;;;20.19;65.79;97730.45;272813;1270;22346;-83
2023/08/02 21:33:32;;;;;;;3.90;1.80;;;;;;;20.12;66.16;97728.61;272690;1268;22326;-84
2023/08/02 21:39:39;;;;;;;2.40;1.40;;;;;;;20.10;66.38;97738.58;272746;1264;22932;-83
2023/08/02 21:45:40;;;;;;;1.70;1.20;;;;;;;20.08;67.36;97743.59;272907;1262;23257;-83
2023/08/02 21:51:42;;;;;;;2.40;1.50;;;;;;;20.03;67.62;97736.68;272957;1261;22335;-83
2023/08/02 21:57:43;;;;;;;10.20;1.90;;;;;;;19.97;67.67;97720.91;272956;1259;22310;-84
2023/08/02 22:03:46;;;;;;;2.20;1.70;;;;;;;19.91;69.70;97716.45;272936;1261;22264;-84
2023/08/02 22:09:54;;;;;;;2.70;1.60;;;;;;;19.67;71.34;97720.23;272871;1260;22238;-84
2023/08/02 22:15:56;;;;;;;4.70;1.70;;;;;;;19.48;71.71;97731.84;272933;1269;22499;-83
2023/08/02 22:21:58;;;;;;;2.90;1.40;;;;;;;19.38;72.71;97731.15;272865;1261;22458;-85
2023/08/02 22:27:59;;;;;;;2.90;1.50;;;;;;;19.27;74.43;97736.69;272669;1270;22301;-84
2023/08/02 22:34:01;;;;;;;6.80;1.40;;;;;;;19.09;75.68;97738.09;272837;1259;22341;-83
2023/08/02 22:40:03;;;;;;;3.80;1.40;;;;;;;18.87;76.38;97735.71;272899;1260;22486;-85
2023/08/02 22:46:05;;;;;;;3.20;1.50;;;;;;;18.69;76.66;97729.15;272875;1270;23444;-84
2023/08/02 22:52:07;;;;;;;2.30;1.30;;;;;;;18.52;77.03;97725.28;272875;1270;22402;-85
2023/08/02 22:58:08;;;;;;;6.70;1.90;;;;;;;18.39;78.39;97721.13;272958;1255;22688;-84
2023/08/02 23:04:11;;;;;;;2.50;1.40;;;;;;;18.27;78.70;97720.55;272885;1260;22326;-84
2023/08/02 23:10:33;;;;;;;3.70;1.50;;;;;;;18.16;79.76;97722.26;272644;1269;22334;-84
2023/08/02 23:16:35;;;;;;;3.10;1.30;;;;;;;18.03;80.60;97721.20;272915;1269;24496;-84
2023/08/02 23:22:40;;;;;;;5.40;1.70;;;;;;;17.98;80.91;97718.92;272877;1270;22337;-84
2023/08/02 23:28:49;;;;;;;4.40;1.50;;;;;;;17.99;81.58;97707.05;272606;1261;23854;-84
2023/08/02 23:34:51;;;;;;;5.70;1.60;;;;;;;17.97;82.01;97712.19;272882;1261;22390;-84
2023/08/02 23:40:52;;;;;;;2.30;1.30;;;;;;;17.94;82.82;97711.42;272949;1260;22366;-85
2023/08/02 23:46:54;;;;;;;4.10;1.80;;;;;;;17.85;83.43;97705.38;272892;1261;22464;-85
2023/08/02 23:52:56;;;;;;;2.60;1.30;;;;;;;17.72;84.01;97699.29;272893;1261;22463;-84
2023/08/02 23:58:58;;;;;;;2.90;1.70;;;;;;;17.59;84.47;97690.56;273115;1253;22454;-85
